This is the latest recevied weather packets stored in our database for station/object IU4KCH-20. If no packets are shown the sender has not sent any weather packets the latest 10 day(s).
| Time | Temp. | Humidity | Pressure | Rain* | Wind** | Luminosity | Snow |
|---|---|---|---|---|---|---|---|
| 1777897869 | 30° C | 25% | 1013.3 hPa | - | - | - | - |
| 1777896968 | 33.89° C | 22% | 1013.4 hPa | - | - | - | - |
| 1777895165 | 27.22° C | 32% | 1013.7 hPa | - | - | - | - |
| 1777894263 | 26.67° C | 30% | 1013.6 hPa | - | - | - | - |
| 1777892461 | 26.11° C | 31% | 1014 hPa | - | - | - | - |
| 1777891559 | 26.67° C | 30% | 1014.2 hPa | - | - | - | - |
| 1777890699 | 26.11° C | 34% | 1014.4 hPa | - | - | - | - |
| 1777890657 | 26.11° C | 34% | 1014.4 hPa | - | - | - | - |
| 1777889756 | 23.89° C | 34% | 1014.6 hPa | - | - | - | - |
| 1777888855 | 22.78° C | 33% | 1014.7 hPa | - | - | - | - |
| 1777887954 | 22.78° C | 36% | 1014.7 hPa | - | - | - | - |
| 1777887052 | 22.78° C | 36% | 1014.7 hPa | - | - | - | - |
| 1777886151 | 22.22° C | 35% | 1014.7 hPa | - | - | - | - |
| 1777885249 | 21.67° C | 38% | 1014.7 hPa | - | - | - | - |
| 1777884348 | 21.11° C | 37% | 1014.9 hPa | - | - | - | - |
| 1777882545 | 20° C | 40% | 1014.9 hPa | - | - | - | - |
| 1777881642 | 20° C | 42% | 1014.9 hPa | - | - | - | - |
| 1777879840 | 18.89° C | 44% | 1014.8 hPa | - | - | - | - |
| 1777878939 | 18.89° C | 44% | 1014.9 hPa | - | - | - | - |
| 1777878038 | 18.89° C | 41% | 1014.8 hPa | - | - | - | - |
| 1777877136 | 18.33° C | 44% | 1014.7 hPa | - | - | - | - |
| 1777876235 | 19.44° C | 41% | 1014.6 hPa | - | - | - | - |
| 1777875334 | 19.44° C | 40% | 1014.6 hPa | - | - | - | - |
| 1777874434 | 18.33° C | 46% | 1014.5 hPa | - | - | - | - |
| 1777871731 | 17.78° C | 43% | 1014.3 hPa | - | - | - | - |
* Rain since midnight (hover to see other rain measurements)
** Current wind speed in m/s (hover to see current wind gust speed)